Archival Weather

Sydney Intl

Sydney, Australia (YSSY)

Report from: Sunday, March 19, 2023 7:51 AM AEDT
Current time: Sunday, May 19, 2024 7:13 PM AEST

Current weather – Weather history – Daily summaries
Weather forecast

Temperature21.0°C (69.8°F)
Dew point20.0°C (68.0°F)
Winds 8 kts (4.1 m/s, 9.2 mph) Northwest (320°)
Visibility2952.8 ft. (900 m)
Altimeter30.03 in.Hg (1017 mB)
Relative humidity94 %
Density altitude891 ft. (272 m)
Remarks Special weather observation
Flight conditions Low Instrument Meteorological Conditions
Raw dataSPAU31 KWBC 182059 SPECI YSSY 182051Z 32008KT 0900 R34L/0800V1100N R34/P2000N FG 21/20 Q1017
An error has occurred. This application may no longer respond until reloaded. Reload 🗙